sensor_id;sensor_type;location;lat;lon;timestamp;P1;durP1;ratioP1;P2;durP2;ratioP2
47575;SDS011;33304;52.456;13.328;2023-05-16T00:00:48;2.53;;;2.33;;
47575;SDS011;33304;52.456;13.328;2023-05-16T00:03:17;2.50;;;2.30;;
47575;SDS011;33304;52.456;13.328;2023-05-16T00:05:44;2.47;;;2.27;;
47575;SDS011;33304;52.456;13.328;2023-05-16T00:08:12;2.47;;;2.27;;
47575;SDS011;33304;52.456;13.328;2023-05-16T00:10:39;3.40;;;2.60;;
47575;SDS011;33304;52.456;13.328;2023-05-16T00:13:06;3.10;;;2.80;;
47575;SDS011;33304;52.456;13.328;2023-05-16T00:15:34;2.30;;;2.10;;
47575;SDS011;33304;52.456;13.328;2023-05-16T00:18:04;2.57;;;2.37;;
47575;SDS011;33304;52.456;13.328;2023-05-16T00:20:31;3.23;;;2.93;;
47575;SDS011;33304;52.456;13.328;2023-05-16T00:22:59;2.73;;;2.53;;
47575;SDS011;33304;52.456;13.328;2023-05-16T00:25:26;3.67;;;2.80;;
47575;SDS011;33304;52.456;13.328;2023-05-16T00:27:53;4.20;;;3.20;;
47575;SDS011;33304;52.456;13.328;2023-05-16T00:30:20;2.80;;;2.60;;
47575;SDS011;33304;52.456;13.328;2023-05-16T00:32:50;3.10;;;2.80;;
47575;SDS011;33304;52.456;13.328;2023-05-16T00:35:19;2.90;;;2.70;;
47575;SDS011;33304;52.456;13.328;2023-05-16T00:37:48;4.00;;;3.07;;
47575;SDS011;33304;52.456;13.328;2023-05-16T00:40:15;3.67;;;2.97;;
47575;SDS011;33304;52.456;13.328;2023-05-16T00:42:42;3.10;;;2.90;;
47575;SDS011;33304;52.456;13.328;2023-05-16T00:45:10;2.77;;;2.57;;
47575;SDS011;33304;52.456;13.328;2023-05-16T00:47:37;3.00;;;2.80;;
47575;SDS011;33304;52.456;13.328;2023-05-16T00:50:05;3.73;;;3.43;;
47575;SDS011;33304;52.456;13.328;2023-05-16T00:52:33;4.10;;;3.33;;
47575;SDS011;33304;52.456;13.328;2023-05-16T00:55:01;3.60;;;3.30;;
47575;SDS011;33304;52.456;13.328;2023-05-16T00:57:30;4.47;;;3.80;;
47575;SDS011;33304;52.456;13.328;2023-05-16T00:59:57;4.03;;;3.73;;
47575;SDS011;33304;52.456;13.328;2023-05-16T01:02:24;3.10;;;2.90;;
47575;SDS011;33304;52.456;13.328;2023-05-16T01:04:53;4.57;;;3.93;;
47575;SDS011;33304;52.456;13.328;2023-05-16T01:07:22;5.27;;;4.87;;
47575;SDS011;33304;52.456;13.328;2023-05-16T01:09:50;5.30;;;4.83;;
47575;SDS011;33304;52.456;13.328;2023-05-16T01:12:20;5.53;;;4.97;;
47575;SDS011;33304;52.456;13.328;2023-05-16T01:14:55;4.40;;;3.90;;
47575;SDS011;33304;52.456;13.328;2023-05-16T01:17:31;4.70;;;4.30;;
47575;SDS011;33304;52.456;13.328;2023-05-16T01:20:08;4.77;;;4.37;;
47575;SDS011;33304;52.456;13.328;2023-05-16T01:22:45;4.13;;;3.43;;
47575;SDS011;33304;52.456;13.328;2023-05-16T01:25:29;4.40;;;4.00;;
47575;SDS011;33304;52.456;13.328;2023-05-16T01:28:01;4.87;;;4.47;;
47575;SDS011;33304;52.456;13.328;2023-05-16T01:30:31;5.20;;;4.80;;
47575;SDS011;33304;52.456;13.328;2023-05-16T01:33:00;7.50;;;4.70;;
47575;SDS011;33304;52.456;13.328;2023-05-16T01:35:27;4.07;;;3.77;;
47575;SDS011;33304;52.456;13.328;2023-05-16T01:37:57;5.13;;;4.70;;
47575;SDS011;33304;52.456;13.328;2023-05-16T01:40:35;5.10;;;4.60;;
47575;SDS011;33304;52.456;13.328;2023-05-16T01:43:10;4.97;;;4.50;;
47575;SDS011;33304;52.456;13.328;2023-05-16T01:45:43;4.60;;;4.20;;
47575;SDS011;33304;52.456;13.328;2023-05-16T01:48:17;4.97;;;4.13;;
47575;SDS011;33304;52.456;13.328;2023-05-16T01:50:51;4.73;;;4.27;;
47575;SDS011;33304;52.456;13.328;2023-05-16T01:53:22;5.37;;;4.87;;
47575;SDS011;33304;52.456;13.328;2023-05-16T01:55:55;5.53;;;4.40;;
47575;SDS011;33304;52.456;13.328;2023-05-16T01:58:25;4.80;;;4.27;;
47575;SDS011;33304;52.456;13.328;2023-05-16T02:00:58;4.53;;;3.93;;
47575;SDS011;33304;52.456;13.328;2023-05-16T02:03:27;5.67;;;4.40;;
47575;SDS011;33304;52.456;13.328;2023-05-16T02:05:54;4.70;;;4.30;;
47575;SDS011;33304;52.456;13.328;2023-05-16T02:08:21;4.73;;;3.70;;
47575;SDS011;33304;52.456;13.328;2023-05-16T02:10:49;6.13;;;4.00;;
47575;SDS011;33304;52.456;13.328;2023-05-16T02:13:16;4.10;;;3.70;;
47575;SDS011;33304;52.456;13.328;2023-05-16T02:15:45;4.47;;;3.60;;
47575;SDS011;33304;52.456;13.328;2023-05-16T02:18:12;4.67;;;4.27;;
47575;SDS011;33304;52.456;13.328;2023-05-16T02:20:40;4.90;;;4.50;;
47575;SDS011;33304;52.456;13.328;2023-05-16T02:23:07;4.63;;;4.20;;
47575;SDS011;33304;52.456;13.328;2023-05-16T02:25:34;4.07;;;3.67;;
47575;SDS011;33304;52.456;13.328;2023-05-16T02:28:01;6.20;;;3.90;;
47575;SDS011;33304;52.456;13.328;2023-05-16T02:30:28;4.53;;;4.13;;
47575;SDS011;33304;52.456;13.328;2023-05-16T02:32:57;5.27;;;3.93;;
47575;SDS011;33304;52.456;13.328;2023-05-16T02:35:24;4.10;;;3.80;;
47575;SDS011;33304;52.456;13.328;2023-05-16T02:37:51;3.97;;;3.67;;
47575;SDS011;33304;52.456;13.328;2023-05-16T02:40:18;4.50;;;4.10;;
47575;SDS011;33304;52.456;13.328;2023-05-16T02:42:45;5.37;;;4.30;;
47575;SDS011;33304;52.456;13.328;2023-05-16T02:45:12;4.60;;;4.20;;
47575;SDS011;33304;52.456;13.328;2023-05-16T02:47:39;4.33;;;3.93;;
47575;SDS011;33304;52.456;13.328;2023-05-16T02:50:08;5.07;;;3.90;;
47575;SDS011;33304;52.456;13.328;2023-05-16T02:52:36;4.87;;;4.40;;
47575;SDS011;33304;52.456;13.328;2023-05-16T02:55:03;4.07;;;3.77;;
47575;SDS011;33304;52.456;13.328;2023-05-16T02:57:32;4.50;;;3.20;;
47575;SDS011;33304;52.456;13.328;2023-05-16T02:59:59;3.97;;;3.50;;
47575;SDS011;33304;52.456;13.328;2023-05-16T03:02:26;5.70;;;4.50;;
47575;SDS011;33304;52.456;13.328;2023-05-16T03:04:53;4.97;;;4.10;;
47575;SDS011;33304;52.456;13.328;2023-05-16T03:07:22;4.90;;;4.37;;
47575;SDS011;33304;52.456;13.328;2023-05-16T03:09:49;4.03;;;3.70;;
47575;SDS011;33304;52.456;13.328;2023-05-16T03:12:17;4.57;;;4.00;;
47575;SDS011;33304;52.456;13.328;2023-05-16T03:14:44;5.10;;;4.30;;
47575;SDS011;33304;52.456;13.328;2023-05-16T03:17:11;5.53;;;4.63;;
47575;SDS011;33304;52.456;13.328;2023-05-16T03:19:38;4.50;;;4.13;;
47575;SDS011;33304;52.456;13.328;2023-05-16T03:22:05;4.80;;;4.03;;
47575;SDS011;33304;52.456;13.328;2023-05-16T03:24:34;7.87;;;4.37;;
47575;SDS011;33304;52.456;13.328;2023-05-16T03:27:01;5.20;;;4.73;;
47575;SDS011;33304;52.456;13.328;2023-05-16T03:29:29;6.37;;;4.67;;
47575;SDS011;33304;52.456;13.328;2023-05-16T03:31:56;6.70;;;4.80;;
47575;SDS011;33304;52.456;13.328;2023-05-16T03:34:23;5.43;;;4.93;;
47575;SDS011;33304;52.456;13.328;2023-05-16T03:36:50;5.93;;;5.30;;
47575;SDS011;33304;52.456;13.328;2023-05-16T03:39:18;5.93;;;4.67;;
47575;SDS011;33304;52.456;13.328;2023-05-16T03:41:46;6.17;;;5.00;;
47575;SDS011;33304;52.456;13.328;2023-05-16T03:44:13;5.13;;;4.73;;
47575;SDS011;33304;52.456;13.328;2023-05-16T03:46:40;5.13;;;4.63;;
47575;SDS011;33304;52.456;13.328;2023-05-16T03:49:07;9.63;;;5.70;;
47575;SDS011;33304;52.456;13.328;2023-05-16T03:51:35;6.43;;;5.23;;
47575;SDS011;33304;52.456;13.328;2023-05-16T03:54:02;5.50;;;4.50;;
47575;SDS011;33304;52.456;13.328;2023-05-16T03:56:29;6.07;;;5.53;;
47575;SDS011;33304;52.456;13.328;2023-05-16T03:58:57;5.27;;;4.67;;
47575;SDS011;33304;52.456;13.328;2023-05-16T04:01:24;5.77;;;4.50;;
47575;SDS011;33304;52.456;13.328;2023-05-16T04:03:52;6.20;;;5.33;;
47575;SDS011;33304;52.456;13.328;2023-05-16T04:06:19;5.37;;;4.97;;
47575;SDS011;33304;52.456;13.328;2023-05-16T04:08:46;5.40;;;4.90;;
47575;SDS011;33304;52.456;13.328;2023-05-16T04:11:13;5.33;;;4.93;;
47575;SDS011;33304;52.456;13.328;2023-05-16T04:13:40;5.27;;;4.87;;
47575;SDS011;33304;52.456;13.328;2023-05-16T04:16:09;6.10;;;5.03;;
47575;SDS011;33304;52.456;13.328;2023-05-16T04:18:36;7.03;;;5.13;;
47575;SDS011;33304;52.456;13.328;2023-05-16T04:21:03;7.13;;;5.10;;
47575;SDS011;33304;52.456;13.328;2023-05-16T04:23:31;8.13;;;5.23;;
47575;SDS011;33304;52.456;13.328;2023-05-16T04:25:58;6.10;;;5.50;;
47575;SDS011;33304;52.456;13.328;2023-05-16T04:28:26;5.87;;;5.37;;
47575;SDS011;33304;52.456;13.328;2023-05-16T04:30:53;6.23;;;5.30;;
47575;SDS011;33304;52.456;13.328;2023-05-16T04:33:21;7.00;;;5.33;;
47575;SDS011;33304;52.456;13.328;2023-05-16T04:35:48;6.03;;;5.03;;
47575;SDS011;33304;52.456;13.328;2023-05-16T15:37:21;1.90;;;1.40;;
47575;SDS011;33304;52.456;13.328;2023-05-16T15:39:48;2.00;;;1.63;;
47575;SDS011;33304;52.456;13.328;2023-05-16T15:42:15;3.92;;;3.70;;
47575;SDS011;33304;52.456;13.328;2023-05-16T15:44:44;3.05;;;2.95;;
47575;SDS011;33304;52.456;13.328;2023-05-16T15:47:11;7.53;;;7.13;;
47575;SDS011;33304;52.456;13.328;2023-05-16T15:49:38;4.77;;;1.97;;
47575;SDS011;33304;52.456;13.328;2023-05-16T15:52:06;1.67;;;1.57;;
47575;SDS011;33304;52.456;13.328;2023-05-16T15:54:34;2.50;;;2.00;;
47575;SDS011;33304;52.456;13.328;2023-05-16T15:57:02;3.10;;;1.20;;
47575;SDS011;33304;52.456;13.328;2023-05-16T15:59:29;1.80;;;1.43;;
47575;SDS011;33304;52.456;13.328;2023-05-16T16:01:56;1.60;;;1.50;;
47575;SDS011;33304;52.456;13.328;2023-05-16T16:04:23;1.60;;;1.50;;
47575;SDS011;33304;52.456;13.328;2023-05-16T16:06:50;1.30;;;1.30;;
47575;SDS011;33304;52.456;13.328;2023-05-16T16:09:17;1.50;;;1.33;;
47575;SDS011;33304;52.456;13.328;2023-05-16T16:11:46;1.33;;;1.30;;
47575;SDS011;33304;52.456;13.328;2023-05-16T16:14:14;4.50;;;1.50;;
47575;SDS011;33304;52.456;13.328;2023-05-16T16:16:41;4.90;;;1.40;;
47575;SDS011;33304;52.456;13.328;2023-05-16T16:19:08;1.53;;;1.10;;
47575;SDS011;33304;52.456;13.328;2023-05-16T16:21:35;1.20;;;1.10;;
47575;SDS011;33304;52.456;13.328;2023-05-16T16:24:03;3.33;;;1.40;;
47575;SDS011;33304;52.456;13.328;2023-05-16T16:26:31;2.27;;;1.57;;
47575;SDS011;33304;52.456;13.328;2023-05-16T16:28:59;1.77;;;1.37;;
47575;SDS011;33304;52.456;13.328;2023-05-16T16:31:26;2.13;;;1.37;;
47575;SDS011;33304;52.456;13.328;2023-05-16T16:33:53;1.60;;;1.50;;
47575;SDS011;33304;52.456;13.328;2023-05-16T16:36:20;1.43;;;1.33;;
47575;SDS011;33304;52.456;13.328;2023-05-16T16:38:47;1.40;;;1.30;;
47575;SDS011;33304;52.456;13.328;2023-05-16T16:41:14;1.63;;;1.13;;
47575;SDS011;33304;52.456;13.328;2023-05-16T16:43:41;1.93;;;1.47;;
47575;SDS011;33304;52.456;13.328;2023-05-16T16:46:10;3.03;;;1.40;;
47575;SDS011;33304;52.456;13.328;2023-05-16T16:48:37;5.03;;;1.43;;
47575;SDS011;33304;52.456;13.328;2023-05-16T16:51:04;1.83;;;1.13;;
47575;SDS011;33304;52.456;13.328;2023-05-16T16:53:31;1.20;;;1.10;;
47575;SDS011;33304;52.456;13.328;2023-05-16T16:55:59;1.83;;;1.30;;
47575;SDS011;33304;52.456;13.328;2023-05-16T16:58:26;1.77;;;1.20;;
47575;SDS011;33304;52.456;13.328;2023-05-16T17:00:53;1.33;;;1.23;;
47575;SDS011;33304;52.456;13.328;2023-05-16T17:03:22;1.93;;;1.23;;
47575;SDS011;33304;52.456;13.328;2023-05-16T17:05:49;1.90;;;1.53;;
47575;SDS011;33304;52.456;13.328;2023-05-16T17:08:17;1.23;;;1.00;;
47575;SDS011;33304;52.456;13.328;2023-05-16T17:10:46;1.43;;;0.90;;
47575;SDS011;33304;52.456;13.328;2023-05-16T17:13:13;2.43;;;1.00;;
47575;SDS011;33304;52.456;13.328;2023-05-16T17:15:42;1.47;;;0.90;;
47575;SDS011;33304;52.456;13.328;2023-05-16T17:18:09;0.97;;;0.70;;
47575;SDS011;33304;52.456;13.328;2023-05-16T17:20:37;1.13;;;1.03;;
47575;SDS011;33304;52.456;13.328;2023-05-16T17:23:05;1.93;;;1.03;;
47575;SDS011;33304;52.456;13.328;2023-05-16T17:25:32;2.10;;;1.30;;
47575;SDS011;33304;52.456;13.328;2023-05-16T17:27:59;1.67;;;0.80;;
47575;SDS011;33304;52.456;13.328;2023-05-16T17:30:26;1.07;;;0.97;;
47575;SDS011;33304;52.456;13.328;2023-05-16T17:32:53;1.03;;;0.97;;
47575;SDS011;33304;52.456;13.328;2023-05-16T17:35:20;1.90;;;1.00;;
47575;SDS011;33304;52.456;13.328;2023-05-16T17:37:48;1.50;;;0.87;;
47575;SDS011;33304;52.456;13.328;2023-05-16T17:40:16;1.53;;;0.90;;
47575;SDS011;33304;52.456;13.328;2023-05-16T17:42:43;4.43;;;1.33;;
47575;SDS011;33304;52.456;13.328;2023-05-16T17:45:11;4.87;;;1.10;;
47575;SDS011;33304;52.456;13.328;2023-05-16T17:47:41;1.97;;;0.87;;
47575;SDS011;33304;52.456;13.328;2023-05-16T17:50:09;1.63;;;1.00;;
47575;SDS011;33304;52.456;13.328;2023-05-16T17:52:36;1.97;;;1.10;;
47575;SDS011;33304;52.456;13.328;2023-05-16T17:55:07;0.80;;;0.80;;
47575;SDS011;33304;52.456;13.328;2023-05-16T17:57:35;0.90;;;0.83;;
47575;SDS011;33304;52.456;13.328;2023-05-16T18:00:02;2.30;;;0.90;;
47575;SDS011;33304;52.456;13.328;2023-05-16T18:02:31;0.80;;;0.80;;
47575;SDS011;33304;52.456;13.328;2023-05-16T18:04:58;1.73;;;0.80;;
47575;SDS011;33304;52.456;13.328;2023-05-16T18:07:25;1.00;;;1.00;;
47575;SDS011;33304;52.456;13.328;2023-05-16T18:09:53;1.20;;;1.00;;
47575;SDS011;33304;52.456;13.328;2023-05-16T18:12:21;2.17;;;1.00;;
47575;SDS011;33304;52.456;13.328;2023-05-16T18:14:48;0.87;;;0.83;;
47575;SDS011;33304;52.456;13.328;2023-05-16T18:17:15;1.67;;;1.00;;
47575;SDS011;33304;52.456;13.328;2023-05-16T18:19:42;2.77;;;1.00;;
47575;SDS011;33304;52.456;13.328;2023-05-16T18:22:10;3.93;;;0.90;;
47575;SDS011;33304;52.456;13.328;2023-05-16T18:24:37;1.00;;;1.00;;
47575;SDS011;33304;52.456;13.328;2023-05-16T18:27:05;1.53;;;1.00;;
47575;SDS011;33304;52.456;13.328;2023-05-16T18:29:33;1.73;;;1.07;;
47575;SDS011;33304;52.456;13.328;2023-05-16T18:32:00;2.43;;;0.90;;
47575;SDS011;33304;52.456;13.328;2023-05-16T18:34:28;1.33;;;1.03;;
47575;SDS011;33304;52.456;13.328;2023-05-16T18:36:55;1.27;;;0.90;;
47575;SDS011;33304;52.456;13.328;2023-05-16T18:39:23;1.50;;;1.03;;
47575;SDS011;33304;52.456;13.328;2023-05-16T18:41:50;0.97;;;0.70;;
47575;SDS011;33304;52.456;13.328;2023-05-16T18:44:17;2.53;;;0.90;;
47575;SDS011;33304;52.456;13.328;2023-05-16T18:46:46;1.77;;;0.97;;
47575;SDS011;33304;52.456;13.328;2023-05-16T18:49:13;1.90;;;1.20;;
47575;SDS011;33304;52.456;13.328;2023-05-16T18:51:40;1.80;;;0.90;;
47575;SDS011;33304;52.456;13.328;2023-05-16T18:54:07;3.53;;;1.20;;
47575;SDS011;33304;52.456;13.328;2023-05-16T18:56:34;1.77;;;1.00;;
47575;SDS011;33304;52.456;13.328;2023-05-16T18:59:01;1.20;;;0.77;;
47575;SDS011;33304;52.456;13.328;2023-05-16T19:01:28;0.90;;;0.90;;
47575;SDS011;33304;52.456;13.328;2023-05-16T19:03:57;1.13;;;1.03;;
47575;SDS011;33304;52.456;13.328;2023-05-16T19:06:24;1.07;;;0.83;;
47575;SDS011;33304;52.456;13.328;2023-05-16T19:08:51;1.67;;;0.97;;
47575;SDS011;33304;52.456;13.328;2023-05-16T19:11:19;1.07;;;0.70;;
47575;SDS011;33304;52.456;13.328;2023-05-16T19:13:46;1.43;;;0.90;;
47575;SDS011;33304;52.456;13.328;2023-05-16T19:16:14;2.37;;;0.97;;
47575;SDS011;33304;52.456;13.328;2023-05-16T19:18:41;3.17;;;1.27;;
47575;SDS011;33304;52.456;13.328;2023-05-16T19:21:09;2.90;;;1.10;;
47575;SDS011;33304;52.456;13.328;2023-05-16T19:23:37;1.40;;;0.90;;
47575;SDS011;33304;52.456;13.328;2023-05-16T19:26:04;1.73;;;1.03;;
47575;SDS011;33304;52.456;13.328;2023-05-16T19:28:32;0.83;;;0.83;;
47575;SDS011;33304;52.456;13.328;2023-05-16T19:30:59;4.30;;;1.00;;
47575;SDS011;33304;52.456;13.328;2023-05-16T19:33:26;1.10;;;0.97;;
47575;SDS011;33304;52.456;13.328;2023-05-16T19:35:53;3.80;;;0.83;;
47575;SDS011;33304;52.456;13.328;2023-05-16T19:38:23;1.20;;;1.00;;
47575;SDS011;33304;52.456;13.328;2023-05-16T19:40:50;1.10;;;1.00;;
47575;SDS011;33304;52.456;13.328;2023-05-16T19:43:18;0.97;;;0.90;;
47575;SDS011;33304;52.456;13.328;2023-05-16T19:45:45;0.83;;;0.83;;
47575;SDS011;33304;52.456;13.328;2023-05-16T19:48:13;1.00;;;0.97;;
47575;SDS011;33304;52.456;13.328;2023-05-16T19:50:40;1.07;;;0.87;;
47575;SDS011;33304;52.456;13.328;2023-05-16T19:53:07;0.80;;;0.80;;
47575;SDS011;33304;52.456;13.328;2023-05-16T19:55:36;1.27;;;0.93;;
47575;SDS011;33304;52.456;13.328;2023-05-16T19:58:03;1.30;;;0.97;;
47575;SDS011;33304;52.456;13.328;2023-05-16T20:00:30;2.33;;;1.03;;
47575;SDS011;33304;52.456;13.328;2023-05-16T20:02:58;1.60;;;0.93;;
47575;SDS011;33304;52.456;13.328;2023-05-16T20:05:25;1.53;;;0.93;;
47575;SDS011;33304;52.456;13.328;2023-05-16T20:07:52;1.53;;;1.20;;
47575;SDS011;33304;52.456;13.328;2023-05-16T20:10:20;0.80;;;0.80;;
47575;SDS011;33304;52.456;13.328;2023-05-16T20:12:48;1.83;;;0.80;;
47575;SDS011;33304;52.456;13.328;2023-05-16T20:15:15;2.03;;;1.00;;
47575;SDS011;33304;52.456;13.328;2023-05-16T20:17:43;1.10;;;1.00;;
47575;SDS011;33304;52.456;13.328;2023-05-16T20:20:10;1.07;;;0.57;;
47575;SDS011;33304;52.456;13.328;2023-05-16T20:22:37;0.90;;;0.90;;
47575;SDS011;33304;52.456;13.328;2023-05-16T20:25:06;1.23;;;0.83;;
47575;SDS011;33304;52.456;13.328;2023-05-16T20:27:34;1.30;;;1.17;;
47575;SDS011;33304;52.456;13.328;2023-05-16T20:30:03;1.10;;;0.60;;
47575;SDS011;33304;52.456;13.328;2023-05-16T20:32:31;0.73;;;0.73;;
47575;SDS011;33304;52.456;13.328;2023-05-16T20:34:59;0.73;;;0.73;;
47575;SDS011;33304;52.456;13.328;2023-05-16T20:37:28;1.87;;;1.30;;
47575;SDS011;33304;52.456;13.328;2023-05-16T20:39:55;1.23;;;0.93;;
47575;SDS011;33304;52.456;13.328;2023-05-16T20:42:22;0.60;;;0.60;;
47575;SDS011;33304;52.456;13.328;2023-05-16T20:44:49;0.90;;;0.90;;
47575;SDS011;33304;52.456;13.328;2023-05-16T20:47:18;0.70;;;0.70;;
47575;SDS011;33304;52.456;13.328;2023-05-16T20:49:45;1.30;;;0.73;;
47575;SDS011;33304;52.456;13.328;2023-05-16T20:52:12;1.67;;;0.90;;
47575;SDS011;33304;52.456;13.328;2023-05-16T20:54:39;1.37;;;1.10;;
47575;SDS011;33304;52.456;13.328;2023-05-16T20:57:06;1.40;;;0.70;;
47575;SDS011;33304;52.456;13.328;2023-05-16T20:59:33;1.20;;;0.90;;
47575;SDS011;33304;52.456;13.328;2023-05-16T21:02:01;1.47;;;0.77;;
47575;SDS011;33304;52.456;13.328;2023-05-16T21:04:31;3.13;;;0.93;;
47575;SDS011;33304;52.456;13.328;2023-05-16T21:06:58;1.20;;;0.80;;
47575;SDS011;33304;52.456;13.328;2023-05-16T21:09:25;1.33;;;0.90;;
47575;SDS011;33304;52.456;13.328;2023-05-16T21:11:52;1.07;;;0.63;;
47575;SDS011;33304;52.456;13.328;2023-05-16T21:14:19;1.47;;;0.80;;
47575;SDS011;33304;52.456;13.328;2023-05-16T21:16:46;1.67;;;1.00;;
47575;SDS011;33304;52.456;13.328;2023-05-16T21:19:13;1.37;;;0.67;;
47575;SDS011;33304;52.456;13.328;2023-05-16T21:21:42;0.83;;;0.83;;
47575;SDS011;33304;52.456;13.328;2023-05-16T21:24:09;2.23;;;1.00;;
47575;SDS011;33304;52.456;13.328;2023-05-16T21:26:36;1.37;;;0.80;;
47575;SDS011;33304;52.456;13.328;2023-05-16T21:29:03;0.70;;;0.70;;
47575;SDS011;33304;52.456;13.328;2023-05-16T21:31:30;0.70;;;0.70;;
47575;SDS011;33304;52.456;13.328;2023-05-16T21:33:57;0.87;;;0.70;;
47575;SDS011;33304;52.456;13.328;2023-05-16T21:36:24;0.67;;;0.67;;
47575;SDS011;33304;52.456;13.328;2023-05-16T21:38:53;2.00;;;0.90;;
47575;SDS011;33304;52.456;13.328;2023-05-16T21:41:20;1.73;;;0.83;;
47575;SDS011;33304;52.456;13.328;2023-05-16T21:43:47;1.07;;;0.80;;
47575;SDS011;33304;52.456;13.328;2023-05-16T21:46:14;0.60;;;0.60;;
47575;SDS011;33304;52.456;13.328;2023-05-16T21:48:41;1.00;;;0.87;;
47575;SDS011;33304;52.456;13.328;2023-05-16T21:51:08;0.90;;;0.80;;
47575;SDS011;33304;52.456;13.328;2023-05-16T21:53:36;3.27;;;0.93;;
47575;SDS011;33304;52.456;13.328;2023-05-16T21:56:05;1.67;;;0.60;;
47575;SDS011;33304;52.456;13.328;2023-05-16T21:58:32;1.37;;;0.73;;
47575;SDS011;33304;52.456;13.328;2023-05-16T22:00:59;1.83;;;0.70;;
47575;SDS011;33304;52.456;13.328;2023-05-16T22:03:26;2.40;;;0.70;;
47575;SDS011;33304;52.456;13.328;2023-05-16T22:05:53;1.20;;;0.63;;
47575;SDS011;33304;52.456;13.328;2023-05-16T22:08:22;0.60;;;0.60;;
47575;SDS011;33304;52.456;13.328;2023-05-16T22:10:49;1.37;;;0.70;;
47575;SDS011;33304;52.456;13.328;2023-05-16T22:13:18;1.03;;;0.93;;
47575;SDS011;33304;52.456;13.328;2023-05-16T22:15:45;3.23;;;0.80;;
47575;SDS011;33304;52.456;13.328;2023-05-16T22:18:12;0.73;;;0.70;;
47575;SDS011;33304;52.456;13.328;2023-05-16T22:20:39;1.03;;;0.80;;
47575;SDS011;33304;52.456;13.328;2023-05-16T22:23:06;0.60;;;0.60;;
47575;SDS011;33304;52.456;13.328;2023-05-16T22:25:33;0.83;;;0.70;;
47575;SDS011;33304;52.456;13.328;2023-05-16T22:28:00;0.87;;;0.80;;
47575;SDS011;33304;52.456;13.328;2023-05-16T22:30:29;0.60;;;0.60;;
47575;SDS011;33304;52.456;13.328;2023-05-16T22:32:56;2.63;;;0.67;;
47575;SDS011;33304;52.456;13.328;2023-05-16T22:35:23;0.83;;;0.73;;
47575;SDS011;33304;52.456;13.328;2023-05-16T22:37:51;0.80;;;0.80;;
47575;SDS011;33304;52.456;13.328;2023-05-16T22:40:18;1.47;;;0.87;;
47575;SDS011;33304;52.456;13.328;2023-05-16T22:42:45;2.97;;;0.90;;
47575;SDS011;33304;52.456;13.328;2023-05-16T22:45:15;0.70;;;0.70;;
47575;SDS011;33304;52.456;13.328;2023-05-16T22:47:44;1.33;;;0.80;;
47575;SDS011;33304;52.456;13.328;2023-05-16T22:50:11;1.13;;;0.63;;
47575;SDS011;33304;52.456;13.328;2023-05-16T22:52:38;1.53;;;0.90;;
47575;SDS011;33304;52.456;13.328;2023-05-16T22:55:06;1.43;;;0.80;;
47575;SDS011;33304;52.456;13.328;2023-05-16T22:57:34;1.60;;;0.80;;
47575;SDS011;33304;52.456;13.328;2023-05-16T23:00:01;1.37;;;0.70;;
47575;SDS011;33304;52.456;13.328;2023-05-16T23:02:29;1.63;;;1.00;;
47575;SDS011;33304;52.456;13.328;2023-05-16T23:04:57;3.27;;;1.13;;
47575;SDS011;33304;52.456;13.328;2023-05-16T23:07:24;1.63;;;0.70;;
47575;SDS011;33304;52.456;13.328;2023-05-16T23:09:53;2.00;;;0.83;;
47575;SDS011;33304;52.456;13.328;2023-05-16T23:12:21;0.83;;;0.70;;
47575;SDS011;33304;52.456;13.328;2023-05-16T23:14:49;0.87;;;0.70;;
47575;SDS011;33304;52.456;13.328;2023-05-16T23:17:16;1.17;;;1.03;;
47575;SDS011;33304;52.456;13.328;2023-05-16T23:19:43;1.40;;;0.93;;
47575;SDS011;33304;52.456;13.328;2023-05-16T23:22:12;1.30;;;0.97;;
47575;SDS011;33304;52.456;13.328;2023-05-16T23:24:39;1.27;;;0.90;;
47575;SDS011;33304;52.456;13.328;2023-05-16T23:27:06;2.47;;;0.93;;
47575;SDS011;33304;52.456;13.328;2023-05-16T23:29:33;1.30;;;0.60;;
47575;SDS011;33304;52.456;13.328;2023-05-16T23:32:00;5.87;;;1.03;;
47575;SDS011;33304;52.456;13.328;2023-05-16T23:34:27;0.90;;;0.80;;
47575;SDS011;33304;52.456;13.328;2023-05-16T23:36:54;2.17;;;1.00;;
47575;SDS011;33304;52.456;13.328;2023-05-16T23:39:22;0.60;;;0.60;;
47575;SDS011;33304;52.456;13.328;2023-05-16T23:41:50;2.03;;;1.27;;
47575;SDS011;33304;52.456;13.328;2023-05-16T23:44:17;0.97;;;0.97;;
47575;SDS011;33304;52.456;13.328;2023-05-16T23:46:44;3.53;;;1.20;;
47575;SDS011;33304;52.456;13.328;2023-05-16T23:49:11;0.90;;;0.77;;
47575;SDS011;33304;52.456;13.328;2023-05-16T23:51:38;1.37;;;1.00;;
47575;SDS011;33304;52.456;13.328;2023-05-16T23:54:05;2.67;;;1.10;;
47575;SDS011;33304;52.456;13.328;2023-05-16T23:56:33;3.43;;;1.27;;
47575;SDS011;33304;52.456;13.328;2023-05-16T23:59:00;1.03;;;0.80;;
